Time;durP1;ratioP1;P1;durP2;ratioP2;P2;SDS_P1;SDS_P2;PMS_P1;PMS_P2;Temp;Humidity;BMP_temperature;BMP_pressure;BME280_temperature;BME280_humidity;BME280_pressure;Samples;Min_cycle;Max_cycle;Signal;HPM_P1;HPM_P2
2023/01/22 00:00:03;;;;;;;;;;;19.90;99.90;;;;;;5029398;28;20344;-71
2023/01/22 00:02:30;;;;;;;;;;;20.10;99.90;;;;;;5028167;28;19996;-69
2023/01/22 00:04:57;;;;;;;;;;;20.20;99.90;;;;;;5028961;28;19955;-69
2023/01/22 00:07:23;;;;;;;;;;;20.20;99.90;;;;;;5032389;28;19917;-70
2023/01/22 00:09:51;;;;;;;;;;;20.30;99.90;;;;;;5029631;28;20362;-70
2023/01/22 00:12:18;;;;;;;;;;;20.50;99.90;;;;;;5042259;28;19920;-69
2023/01/22 00:14:45;;;;;;;;;;;20.50;99.90;;;;;;5034353;28;20317;-70
2023/01/22 00:17:13;;;;;;;;;;;20.60;99.90;;;;;;5033274;28;19917;-69
2023/01/22 00:19:39;;;;;;;;;;;20.70;99.90;;;;;;5033564;28;19920;-68
2023/01/22 00:22:06;;;;;;;;;;;20.80;99.90;;;;;;5032267;28;19917;-69
2023/01/22 00:24:34;;;;;;;;;;;20.70;99.90;;;;;;5032999;28;20013;-69
2023/01/22 00:27:00;;;;;;;;;;;20.80;99.90;;;;;;5033218;28;20331;-68
2023/01/22 00:29:27;;;;;;;;;;;20.90;99.90;;;;;;5033085;28;20516;-69
2023/01/22 00:31:54;;;;;;;;;;;20.90;99.90;;;;;;5032457;28;19928;-70
2023/01/22 00:34:20;;;;;;;;;;;21.00;99.90;;;;;;5031370;28;19969;-69
2023/01/22 00:36:48;;;;;;;;;;;21.20;99.90;;;;;;5032176;28;19944;-69
2023/01/22 00:39:15;;;;;;;;;;;21.30;99.90;;;;;;5033558;28;20379;-69
2023/01/22 00:41:42;;;;;;;;;;;21.50;99.90;;;;;;5032092;28;19916;-69
2023/01/22 00:44:10;;;;;;;;;;;21.70;99.90;;;;;;5031880;28;19939;-69
2023/01/22 00:46:37;;;;;;;;;;;21.80;99.90;;;;;;5032643;28;19970;-69
2023/01/22 00:49:03;;;;;;;;;;;22.10;99.90;;;;;;5032656;28;19926;-69
2023/01/22 00:51:35;;;;;;;;;;;22.20;99.90;;;;;;5032776;28;20192;-69
2023/01/22 00:54:02;;;;;;;;;;;22.20;99.90;;;;;;5033139;28;19948;-67
2023/01/22 00:56:28;;;;;;;;;;;22.30;99.90;;;;;;5033495;28;19916;-69
2023/01/22 00:58:55;;;;;;;;;;;22.40;99.90;;;;;;5032765;28;20250;-70
2023/01/22 01:01:22;;;;;;;;;;;22.50;99.90;;;;;;5033099;28;19997;-69
2023/01/22 01:03:48;;;;;;;;;;;22.40;99.90;;;;;;5032960;28;19927;-70
2023/01/22 01:06:17;;;;;;;;;;;22.30;99.90;;;;;;5032680;28;19913;-69
2023/01/22 01:08:44;;;;;;;;;;;22.30;99.90;;;;;;5031838;28;19973;-69
2023/01/22 01:11:14;;;;;;;;;;;22.20;99.90;;;;;;5039209;28;19924;-69
2023/01/22 01:13:42;;;;;;;;;;;22.20;99.90;;;;;;5032089;28;19913;-69
2023/01/22 01:16:13;;;;;;;;;;;22.20;99.90;;;;;;5034599;28;19915;-69
2023/01/22 01:18:40;;;;;;;;;;;22.20;99.90;;;;;;5032516;28;20437;-69
2023/01/22 01:21:07;;;;;;;;;;;22.20;99.90;;;;;;5033138;28;20360;-70
2023/01/22 01:23:34;;;;;;;;;;;22.10;99.90;;;;;;5031647;28;19916;-70
2023/01/22 01:26:05;;;;;;;;;;;22.10;99.90;;;;;;5030715;28;19913;-71
2023/01/22 01:28:31;;;;;;;;;;;22.10;99.90;;;;;;5032498;28;19935;-69
2023/01/22 01:31:01;;;;;;;;;;;22.20;99.90;;;;;;5033050;28;19927;-70
2023/01/22 01:33:27;;;;;;;;;;;22.20;99.90;;;;;;5032454;28;20026;-67
2023/01/22 01:36:01;;;;;;;;;;;22.20;99.90;;;;;;5031484;28;19913;-69
2023/01/22 01:38:28;;;;;;;;;;;22.20;99.90;;;;;;5031771;28;19917;-69
2023/01/22 01:40:54;;;;;;;;;;;22.10;99.90;;;;;;5030704;28;19913;-69
2023/01/22 01:43:21;;;;;;;;;;;22.00;99.90;;;;;;5030315;28;19917;-68
2023/01/22 01:45:48;;;;;;;;;;;21.80;99.90;;;;;;5031210;28;19936;-68
2023/01/22 01:48:20;;;;;;;;;;;21.70;99.90;;;;;;5030353;28;19917;-69
2023/01/22 01:50:52;;;;;;;;;;;21.60;99.90;;;;;;5028962;28;19916;-69
2023/01/22 01:53:19;;;;;;;;;;;21.50;99.90;;;;;;5031216;28;20297;-68
2023/01/22 01:55:45;;;;;;;;;;;21.40;99.90;;;;;;5031993;28;19928;-70
2023/01/22 01:58:20;;;;;;;;;;;21.20;99.90;;;;;;5030273;28;19963;-68
2023/01/22 02:00:47;;;;;;;;;;;21.10;99.90;;;;;;5029269;28;19923;-69
2023/01/22 02:03:14;;;;;;;;;;;20.90;99.90;;;;;;5030913;28;20426;-68
2023/01/22 02:05:40;;;;;;;;;;;20.80;99.90;;;;;;5030789;28;20074;-69
2023/01/22 02:08:08;;;;;;;;;;;20.70;99.90;;;;;;5031792;28;19917;-70
2023/01/22 02:10:36;;;;;;;;;;;20.60;99.90;;;;;;5028907;28;19963;-70
2023/01/22 02:13:05;;;;;;;;;;;20.70;99.90;;;;;;5031994;28;19924;-70
2023/01/22 02:15:31;;;;;;;;;;;20.70;99.90;;;;;;5030605;28;19919;-70
2023/01/22 02:17:58;;;;;;;;;;;20.80;99.90;;;;;;5028747;28;21375;-69
2023/01/22 02:20:25;;;;;;;;;;;20.80;99.90;;;;;;5031239;28;19935;-69
2023/01/22 02:22:53;;;;;;;;;;;20.70;99.90;;;;;;5029901;28;19979;-69
2023/01/22 02:25:20;;;;;;;;;;;20.70;99.90;;;;;;5029685;28;19956;-69
2023/01/22 02:27:46;;;;;;;;;;;20.70;99.90;;;;;;5029728;28;19916;-69
2023/01/22 02:30:14;;;;;;;;;;;20.70;99.90;;;;;;5030540;28;20322;-69
2023/01/22 02:32:40;;;;;;;;;;;20.80;99.90;;;;;;5031438;28;20025;-68
2023/01/22 02:35:07;;;;;;;;;;;20.80;99.90;;;;;;5030117;28;19965;-68
2023/01/22 02:37:34;;;;;;;;;;;20.80;99.90;;;;;;5030384;28;20291;-69
2023/01/22 02:40:01;;;;;;;;;;;20.80;99.90;;;;;;5030250;28;19917;-69
2023/01/22 02:42:27;;;;;;;;;;;20.80;99.90;;;;;;5029609;28;19913;-67
2023/01/22 02:44:54;;;;;;;;;;;20.70;99.90;;;;;;5032107;28;19935;-67
2023/01/22 02:47:21;;;;;;;;;;;20.70;99.90;;;;;;5029984;28;19999;-69
2023/01/22 02:49:47;;;;;;;;;;;20.60;99.90;;;;;;5030504;28;19916;-69
2023/01/22 02:52:14;;;;;;;;;;;20.50;99.90;;;;;;5030549;28;19932;-69
2023/01/22 02:54:40;;;;;;;;;;;20.50;99.90;;;;;;5020751;28;19947;-67
2023/01/22 02:57:07;;;;;;;;;;;20.60;99.90;;;;;;5029696;28;19916;-68
2023/01/22 02:59:34;;;;;;;;;;;20.70;99.90;;;;;;5030747;28;19956;-70
2023/01/22 03:02:01;;;;;;;;;;;20.80;99.90;;;;;;5029438;28;19917;-69
2023/01/22 03:04:27;;;;;;;;;;;21.00;99.90;;;;;;5028089;28;20021;-67
2023/01/22 03:06:54;;;;;;;;;;;21.10;99.90;;;;;;5029407;28;19956;-68
2023/01/22 03:09:21;;;;;;;;;;;21.10;99.90;;;;;;5029705;28;19913;-67
2023/01/22 03:11:48;;;;;;;;;;;21.20;99.90;;;;;;5030486;28;19920;-68
2023/01/22 03:22:29;;;;;;;;;;;21.40;99.90;;;;;;5030190;28;19969;-69
2023/01/22 03:24:57;;;;;;;;;;;21.40;99.90;;;;;;5028479;28;20324;-68
2023/01/22 03:27:25;;;;;;;;;;;21.50;99.90;;;;;;5030602;28;19952;-68
2023/01/22 03:29:52;;;;;;;;;;;21.50;99.90;;;;;;5029685;28;19917;-68
2023/01/22 03:32:19;;;;;;;;;;;21.50;99.90;;;;;;5029003;28;20019;-68
2023/01/22 03:34:45;;;;;;;;;;;21.50;99.90;;;;;;5028689;28;20039;-68
2023/01/22 03:37:12;;;;;;;;;;;21.50;99.90;;;;;;5028658;28;19925;-69
2023/01/22 03:39:39;;;;;;;;;;;21.60;99.90;;;;;;5031287;28;19977;-69
2023/01/22 03:42:07;;;;;;;;;;;21.60;99.90;;;;;;5030415;28;19983;-70
2023/01/22 03:44:33;;;;;;;;;;;21.60;99.90;;;;;;5029114;28;20871;-69
2023/01/22 03:47:00;;;;;;;;;;;21.60;99.90;;;;;;5031268;28;19995;-71
2023/01/22 03:49:27;;;;;;;;;;;21.60;99.90;;;;;;5033311;28;19978;-71
2023/01/22 03:51:53;;;;;;;;;;;21.70;99.90;;;;;;5034054;28;20047;-70
2023/01/22 03:54:20;;;;;;;;;;;21.70;99.90;;;;;;5033679;28;20010;-69
2023/01/22 03:56:47;;;;;;;;;;;21.90;99.90;;;;;;5034334;28;19956;-69
2023/01/22 03:59:14;;;;;;;;;;;22.10;99.90;;;;;;5032669;28;19917;-69
2023/01/22 04:01:40;;;;;;;;;;;22.20;99.90;;;;;;5032833;28;19978;-69
2023/01/22 04:04:07;;;;;;;;;;;22.30;99.90;;;;;;5033141;28;19916;-69
2023/01/22 04:06:34;;;;;;;;;;;22.50;99.90;;;;;;5034518;28;20698;-69
2023/01/22 04:09:00;;;;;;;;;;;22.60;99.90;;;;;;5032016;28;19924;-69
2023/01/22 04:11:27;;;;;;;;;;;22.70;99.90;;;;;;5033089;28;20534;-68
2023/01/22 04:13:54;;;;;;;;;;;22.80;99.90;;;;;;5030965;28;20383;-68
2023/01/22 04:16:21;;;;;;;;;;;22.90;99.90;;;;;;5033444;28;19920;-68
2023/01/22 04:18:48;;;;;;;;;;;22.90;99.90;;;;;;5031409;28;20054;-69
2023/01/22 04:21:14;;;;;;;;;;;22.90;99.90;;;;;;5031678;28;19909;-69
2023/01/22 04:23:41;;;;;;;;;;;22.90;99.90;;;;;;5032842;28;19917;-69
2023/01/22 04:26:07;;;;;;;;;;;23.00;99.90;;;;;;5034197;28;19934;-69
2023/01/22 04:28:35;;;;;;;;;;;23.10;99.90;;;;;;5031803;28;19913;-69
2023/01/22 04:31:03;;;;;;;;;;;23.10;99.90;;;;;;5032442;28;20291;-70
2023/01/22 04:33:30;;;;;;;;;;;23.10;99.90;;;;;;5034438;28;19920;-70
2023/01/22 04:35:57;;;;;;;;;;;23.10;99.90;;;;;;5034582;28;20282;-69
2023/01/22 04:38:23;;;;;;;;;;;23.10;99.90;;;;;;5032010;28;20438;-70
2023/01/22 04:40:50;;;;;;;;;;;23.10;99.90;;;;;;5033177;28;20039;-69
2023/01/22 04:43:17;;;;;;;;;;;22.80;99.90;;;;;;5031968;28;19989;-69
2023/01/22 04:45:43;;;;;;;;;;;22.60;99.90;;;;;;5031770;28;19917;-69
2023/01/22 04:48:11;;;;;;;;;;;22.50;99.90;;;;;;5032113;28;19944;-69
2023/01/22 04:50:38;;;;;;;;;;;22.10;99.90;;;;;;5031320;28;19964;-68
2023/01/22 04:53:05;;;;;;;;;;;21.50;99.90;;;;;;5033100;28;19917;-69
2023/01/22 04:55:32;;;;;;;;;;;21.10;99.90;;;;;;5023571;28;19913;-68
2023/01/22 04:57:59;;;;;;;;;;;20.80;99.90;;;;;;5032942;28;19970;-70
2023/01/22 05:00:27;;;;;;;;;;;20.50;99.90;;;;;;5032382;28;20378;-69
2023/01/22 05:02:57;;;;;;;;;;;20.50;99.90;;;;;;5032762;28;20050;-69
2023/01/22 05:05:24;;;;;;;;;;;20.50;99.90;;;;;;5031580;28;19917;-69
2023/01/22 05:07:50;;;;;;;;;;;20.30;99.90;;;;;;5032746;28;19919;-69
2023/01/22 05:10:17;;;;;;;;;;;20.20;99.90;;;;;;5038081;28;19913;-69
2023/01/22 05:12:44;;;;;;;;;;;20.10;99.90;;;;;;5031625;28;19920;-68
2023/01/22 05:15:11;;;;;;;;;;;20.00;99.90;;;;;;5032310;28;20293;-69
2023/01/22 05:17:38;;;;;;;;;;;20.00;99.90;;;;;;5031523;28;19916;-69
2023/01/22 05:20:04;;;;;;;;;;;19.90;99.90;;;;;;5031963;28;19935;-70
2023/01/22 05:22:31;;;;;;;;;;;20.00;99.90;;;;;;5033148;28;19999;-69
2023/01/22 05:24:58;;;;;;;;;;;20.00;99.90;;;;;;5031341;28;20377;-68
2023/01/22 05:27:25;;;;;;;;;;;20.00;99.90;;;;;;5031503;28;20354;-69
2023/01/22 05:29:51;;;;;;;;;;;20.00;99.90;;;;;;5032148;28;20252;-69
2023/01/22 05:32:18;;;;;;;;;;;20.00;99.90;;;;;;5031392;28;19925;-68
2023/01/22 05:34:45;;;;;;;;;;;19.90;99.90;;;;;;5031569;28;20378;-68
2023/01/22 05:37:11;;;;;;;;;;;20.00;99.90;;;;;;5031030;28;19919;-69
2023/01/22 05:39:38;;;;;;;;;;;20.00;99.90;;;;;;5030943;28;19917;-69
2023/01/22 05:42:05;;;;;;;;;;;20.10;99.90;;;;;;5032187;28;19916;-69
2023/01/22 05:44:31;;;;;;;;;;;20.20;99.90;;;;;;5032281;28;20292;-69
2023/01/22 05:46:58;;;;;;;;;;;20.30;99.90;;;;;;5030027;28;19913;-69
2023/01/22 05:49:26;;;;;;;;;;;20.40;99.90;;;;;;5029030;28;20780;-70
2023/01/22 05:51:52;;;;;;;;;;;20.50;99.90;;;;;;5030629;28;19967;-69
2023/01/22 05:54:19;;;;;;;;;;;20.60;99.90;;;;;;5030703;28;20425;-70
2023/01/22 05:56:46;;;;;;;;;;;20.70;99.90;;;;;;5029978;28;19912;-70
2023/01/22 05:59:12;;;;;;;;;;;20.80;99.90;;;;;;5031648;28;20433;-69
2023/01/22 06:01:39;;;;;;;;;;;21.00;99.90;;;;;;5033041;28;19912;-69
2023/01/22 06:04:06;;;;;;;;;;;21.10;99.90;;;;;;5029990;28;19909;-69
2023/01/22 06:06:33;;;;;;;;;;;21.10;99.90;;;;;;5032015;28;19942;-69
2023/01/22 06:09:00;;;;;;;;;;;21.10;99.90;;;;;;5030926;28;19994;-69
2023/01/22 06:11:27;;;;;;;;;;;21.10;99.90;;;;;;5029163;28;19921;-69
2023/01/22 06:13:53;;;;;;;;;;;21.10;99.90;;;;;;5042375;28;19916;-69
2023/01/22 06:16:20;;;;;;;;;;;21.10;99.90;;;;;;5031746;28;19912;-69
2023/01/22 06:18:56;;;;;;;;;;;21.00;99.90;;;;;;5033364;28;19913;-69
2023/01/22 06:21:23;;;;;;;;;;;21.00;99.90;;;;;;5031256;28;19923;-68
2023/01/22 06:23:49;;;;;;;;;;;21.00;99.90;;;;;;5031737;28;19913;-70
2023/01/22 06:26:16;;;;;;;;;;;21.00;99.90;;;;;;5031231;28;19923;-68
2023/01/22 06:28:43;;;;;;;;;;;21.00;99.90;;;;;;5030489;28;19917;-69
2023/01/22 06:31:10;;;;;;;;;;;21.10;99.90;;;;;;5030241;28;20386;-69
2023/01/22 06:33:37;;;;;;;;;;;21.10;99.90;;;;;;5030400;28;19925;-69
2023/01/22 06:36:04;;;;;;;;;;;21.10;99.90;;;;;;5032833;28;20039;-69
2023/01/22 06:38:31;;;;;;;;;;;21.10;99.90;;;;;;5030108;28;20011;-69
2023/01/22 06:40:58;;;;;;;;;;;21.00;99.90;;;;;;5030516;28;20028;-68
2023/01/22 06:43:26;;;;;;;;;;;20.90;99.90;;;;;;5030139;28;19913;-69
2023/01/22 06:45:53;;;;;;;;;;;20.80;99.90;;;;;;5030577;28;19919;-69
2023/01/22 06:48:20;;;;;;;;;;;20.80;99.90;;;;;;5028887;28;20322;-69
2023/01/22 06:50:46;;;;;;;;;;;20.80;99.90;;;;;;5028806;28;19963;-69
2023/01/22 06:53:13;;;;;;;;;;;20.80;99.90;;;;;;5028706;28;20461;-69
2023/01/22 06:55:40;;;;;;;;;;;20.80;99.90;;;;;;5028746;28;19959;-68
2023/01/22 06:58:06;;;;;;;;;;;20.70;99.90;;;;;;5028299;28;19921;-68
2023/01/22 07:00:33;;;;;;;;;;;20.80;99.90;;;;;;5028077;28;19933;-68
2023/01/22 07:03:00;;;;;;;;;;;20.70;99.90;;;;;;5029110;28;19917;-69
2023/01/22 07:05:27;;;;;;;;;;;20.70;99.90;;;;;;5028676;28;19917;-68
2023/01/22 07:07:54;;;;;;;;;;;20.70;99.90;;;;;;5028950;28;19917;-68
2023/01/22 07:10:21;;;;;;;;;;;20.70;99.90;;;;;;5029553;28;19920;-69
2023/01/22 07:12:48;;;;;;;;;;;20.60;99.90;;;;;;5028605;28;19917;-69
2023/01/22 07:15:15;;;;;;;;;;;20.50;99.90;;;;;;5030231;28;19916;-68
2023/01/22 07:17:42;;;;;;;;;;;20.50;99.90;;;;;;5029376;28;19912;-70
2023/01/22 07:20:09;;;;;;;;;;;20.40;99.90;;;;;;5028849;28;19916;-68
2023/01/22 07:22:36;;;;;;;;;;;20.40;99.90;;;;;;5031709;28;19963;-68
2023/01/22 07:25:02;;;;;;;;;;;20.30;99.90;;;;;;5033973;28;19917;-68
2023/01/22 07:27:31;;;;;;;;;;;20.30;99.90;;;;;;5032705;28;20452;-69
2023/01/22 07:30:00;;;;;;;;;;;20.30;99.90;;;;;;5030503;28;19938;-68
2023/01/22 07:32:27;;;;;;;;;;;20.30;99.90;;;;;;5031818;28;20512;-70
2023/01/22 07:34:54;;;;;;;;;;;20.20;99.90;;;;;;5032840;28;19965;-69
2023/01/22 07:37:20;;;;;;;;;;;20.30;99.90;;;;;;5029737;28;19965;-70
2023/01/22 07:39:47;;;;;;;;;;;20.30;99.90;;;;;;5031727;28;20623;-68
2023/01/22 07:42:17;;;;;;;;;;;20.30;99.90;;;;;;5033346;28;19917;-70
2023/01/22 07:44:43;;;;;;;;;;;20.30;99.90;;;;;;5033035;28;20032;-70
2023/01/22 07:47:10;;;;;;;;;;;20.20;99.90;;;;;;5033144;28;19952;-69
2023/01/22 07:49:37;;;;;;;;;;;20.20;99.90;;;;;;5029861;28;19912;-69
2023/01/22 07:52:03;;;;;;;;;;;20.30;99.90;;;;;;5031183;28;20442;-69
2023/01/22 07:54:34;;;;;;;;;;;20.30;99.90;;;;;;5032822;28;20316;-69
2023/01/22 07:57:02;;;;;;;;;;;20.30;99.90;;;;;;5033111;28;19924;-68
2023/01/22 07:59:29;;;;;;;;;;;20.20;99.90;;;;;;5032503;28;19948;-68
2023/01/22 08:01:55;;;;;;;;;;;20.10;99.90;;;;;;5031530;28;20015;-69
2023/01/22 08:04:22;;;;;;;;;;;20.10;99.90;;;;;;5032743;28;22381;-69
2023/01/22 08:06:50;;;;;;;;;;;20.00;99.90;;;;;;5027643;28;20279;-69
2023/01/22 08:09:23;;;;;;;;;;;20.00;99.90;;;;;;5030790;28;19917;-69
2023/01/22 08:11:50;;;;;;;;;;;20.00;99.90;;;;;;5031946;28;19916;-68
2023/01/22 08:14:17;;;;;;;;;;;19.90;99.90;;;;;;5047601;28;19916;-69
2023/01/22 08:16:44;;;;;;;;;;;19.90;99.90;;;;;;5031408;28;19917;-70
2023/01/22 08:19:10;;;;;;;;;;;19.90;99.90;;;;;;5034381;28;19956;-70
2023/01/22 08:21:37;;;;;;;;;;;19.90;99.90;;;;;;5032652;28;19923;-70
2023/01/22 08:24:04;;;;;;;;;;;19.80;99.90;;;;;;5032994;28;19923;-70
2023/01/22 08:26:31;;;;;;;;;;;19.80;99.90;;;;;;5033693;28;19952;-70
2023/01/22 08:28:57;;;;;;;;;;;19.80;99.90;;;;;;5033155;28;19923;-69
2023/01/22 08:31:24;;;;;;;;;;;19.70;99.90;;;;;;5032304;28;19947;-70
2023/01/22 08:33:51;;;;;;;;;;;19.70;99.90;;;;;;5030529;28;20886;-70
2023/01/22 08:36:17;;;;;;;;;;;19.70;99.90;;;;;;5032459;28;19909;-69
2023/01/22 08:38:44;;;;;;;;;;;19.70;99.90;;;;;;5030695;28;19917;-69
2023/01/22 08:41:11;;;;;;;;;;;19.70;99.90;;;;;;5032733;28;20441;-70
2023/01/22 08:43:37;;;;;;;;;;;19.70;99.90;;;;;;5035507;28;19959;-69
2023/01/22 08:46:04;;;;;;;;;;;19.60;99.90;;;;;;5034323;28;20306;-69
2023/01/22 08:48:37;;;;;;;;;;;19.70;99.90;;;;;;5033804;28;19996;-69
2023/01/22 08:51:04;;;;;;;;;;;19.60;99.90;;;;;;5032248;28;19934;-70
2023/01/22 08:53:31;;;;;;;;;;;19.60;99.90;;;;;;5029431;28;19917;-69
2023/01/22 08:55:57;;;;;;;;;;;19.60;99.90;;;;;;5032202;28;20357;-69
2023/01/22 08:58:26;;;;;;;;;;;19.60;99.90;;;;;;5033378;28;19920;-68
2023/01/22 09:00:54;;;;;;;;;;;19.50;99.90;;;;;;5031137;28;19924;-70
2023/01/22 09:03:21;;;;;;;;;;;19.60;99.90;;;;;;5030119;28;20006;-70
2023/01/22 09:05:48;;;;;;;;;;;19.60;99.90;;;;;;5031863;28;19909;-70
2023/01/22 09:08:14;;;;;;;;;;;19.60;99.90;;;;;;5031803;28;19962;-68
2023/01/22 09:10:41;;;;;;;;;;;19.50;99.90;;;;;;5031281;28;19927;-68
2023/01/22 09:13:09;;;;;;;;;;;19.50;99.90;;;;;;5036726;28;20042;-68
2023/01/22 09:15:36;;;;;;;;;;;19.50;99.90;;;;;;5029773;28;19917;-69
2023/01/22 09:18:03;;;;;;;;;;;19.40;99.90;;;;;;5031845;28;20345;-69
2023/01/22 09:20:29;;;;;;;;;;;19.40;99.90;;;;;;5030506;28;20317;-69
2023/01/22 09:22:56;;;;;;;;;;;19.40;99.90;;;;;;5029966;28;19978;-69
2023/01/22 09:25:22;;;;;;;;;;;19.40;99.90;;;;;;5031184;28;19924;-69
2023/01/22 09:27:49;;;;;;;;;;;19.40;99.90;;;;;;5030450;28;19919;-70
2023/01/22 09:30:16;;;;;;;;;;;19.40;99.90;;;;;;5029682;28;19917;-69
2023/01/22 09:32:43;;;;;;;;;;;19.40;99.90;;;;;;5029284;28;19968;-69
2023/01/22 09:35:09;;;;;;;;;;;19.40;99.90;;;;;;5029543;28;19959;-69
2023/01/22 09:37:36;;;;;;;;;;;19.30;99.90;;;;;;5029107;28;19920;-69
2023/01/22 09:40:03;;;;;;;;;;;19.30;99.90;;;;;;5030868;28;19912;-70
2023/01/22 09:42:33;;;;;;;;;;;19.30;99.90;;;;;;5030474;28;19913;-70
2023/01/22 09:45:05;;;;;;;;;;;19.30;99.90;;;;;;5028750;28;19985;-69
2023/01/22 09:47:38;;;;;;;;;;;19.30;99.90;;;;;;5030081;28;20398;-69
2023/01/22 09:50:18;;;;;;;;;;;19.30;99.90;;;;;;5029841;28;19920;-69
2023/01/22 09:52:45;;;;;;;;;;;19.30;99.90;;;;;;5029023;28;19946;-69
2023/01/22 09:55:12;;;;;;;;;;;19.20;99.90;;;;;;5030020;28;20012;-70
2023/01/22 09:57:44;;;;;;;;;;;19.30;99.90;;;;;;5028968;28;19928;-70
2023/01/22 10:00:14;;;;;;;;;;;19.30;99.90;;;;;;5031419;28;19916;-71
2023/01/22 10:02:46;;;;;;;;;;;19.30;99.90;;;;;;5032782;28;19913;-73
2023/01/22 10:05:34;;;;;;;;;;;19.30;99.90;;;;;;5030706;28;19947;-71
2023/01/22 10:08:27;;;;;;;;;;;19.20;99.90;;;;;;5032652;28;20451;-71
2023/01/22 10:10:54;;;;;;;;;;;19.10;99.90;;;;;;5028018;28;20746;-73
2023/01/22 10:13:22;;;;;;;;;;;19.10;99.90;;;;;;5037352;28;19912;-72
2023/01/22 10:15:49;;;;;;;;;;;19.10;99.90;;;;;;5031162;28;19928;-72
2023/01/22 10:18:21;;;;;;;;;;;19.00;99.90;;;;;;5030792;28;19952;-72
2023/01/22 10:20:49;;;;;;;;;;;19.00;99.90;;;;;;5031365;28;19928;-72
2023/01/22 10:23:17;;;;;;;;;;;19.00;99.90;;;;;;5030751;28;19962;-69
2023/01/22 10:25:44;;;;;;;;;;;19.00;99.90;;;;;;5031043;28;19938;-70
2023/01/22 10:28:12;;;;;;;;;;;18.90;99.90;;;;;;5030964;28;20363;-69
2023/01/22 10:30:46;;;;;;;;;;;18.80;99.90;;;;;;5030107;28;19967;-69
2023/01/22 10:33:16;;;;;;;;;;;18.80;99.90;;;;;;5031172;28;20294;-71
2023/01/22 10:35:45;;;;;;;;;;;18.70;99.90;;;;;;5029239;28;19918;-71
2023/01/22 10:38:41;;;;;;;;;;;18.60;99.90;;;;;;5029277;28;19917;-72
2023/01/22 10:41:16;;;;;;;;;;;18.50;99.90;;;;;;5022321;28;19913;-71
2023/01/22 10:43:42;;;;;;;;;;;18.40;99.90;;;;;;5029194;28;19913;-72
2023/01/22 10:46:20;;;;;;;;;;;18.40;99.90;;;;;;5031413;28;19920;-72
2023/01/22 10:48:57;;;;;;;;;;;18.30;99.90;;;;;;5030763;28;19928;-74
2023/01/22 10:51:31;;;;;;;;;;;18.30;99.90;;;;;;5030404;28;20125;-71
2023/01/22 10:53:58;;;;;;;;;;;18.20;99.90;;;;;;5029899;28;19912;-74
2023/01/22 10:56:32;;;;;;;;;;;18.20;99.90;;;;;;5029463;28;19913;-71
2023/01/22 10:59:04;;;;;;;;;;;18.20;99.90;;;;;;5028866;28;20407;-71
2023/01/22 11:01:38;;;;;;;;;;;18.10;99.90;;;;;;5028499;28;20035;-72
2023/01/22 11:04:34;;;;;;;;;;;18.00;99.90;;;;;;5030490;28;19916;-74
2023/01/22 11:07:04;;;;;;;;;;;18.00;99.90;;;;;;5022657;28;19920;-73
2023/01/22 11:09:31;;;;;;;;;;;18.00;99.90;;;;;;5035677;28;19923;-71
2023/01/22 11:12:06;;;;;;;;;;;18.00;99.90;;;;;;5031335;28;21625;-73
2023/01/22 11:14:34;;;;;;;;;;;17.90;99.90;;;;;;5028049;28;20334;-70
2023/01/22 11:17:21;;;;;;;;;;;17.80;99.90;;;;;;5029476;28;19928;-73
2023/01/22 11:20:10;;;;;;;;;;;17.90;99.90;;;;;;5023476;28;20618;-69
2023/01/22 11:22:38;;;;;;;;;;;18.00;99.90;;;;;;5008310;28;19959;-73
2023/01/22 11:25:10;;;;;;;;;;;17.90;99.90;;;;;;5028628;28;19994;-73
2023/01/22 11:27:47;;;;;;;;;;;17.90;99.90;;;;;;5031068;28;19916;-72
2023/01/22 11:30:14;;;;;;;;;;;17.80;99.90;;;;;;5027471;28;20008;-72
2023/01/22 11:32:40;;;;;;;;;;;17.90;99.90;;;;;;5030892;28;19920;-71
2023/01/22 11:35:19;;;;;;;;;;;17.90;99.90;;;;;;5029440;28;20011;-69
2023/01/22 11:37:58;;;;;;;;;;;17.90;99.90;;;;;;5034009;28;20015;-71
2023/01/22 11:40:32;;;;;;;;;;;17.90;99.90;;;;;;5030612;28;19917;-70
2023/01/22 11:43:17;;;;;;;;;;;18.00;99.90;;;;;;5030601;28;20951;-71
2023/01/22 11:45:49;;;;;;;;;;;18.00;99.90;;;;;;5045751;28;19974;-72
2023/01/22 11:48:16;;;;;;;;;;;18.00;99.90;;;;;;5031190;28;19924;-73
2023/01/22 11:50:55;;;;;;;;;;;18.00;99.90;;;;;;5029865;28;20017;-69
2023/01/22 11:53:25;;;;;;;;;;;18.00;99.90;;;;;;5028611;28;19939;-70
2023/01/22 11:55:57;;;;;;;;;;;18.00;99.90;;;;;;5031032;28;20299;-71
2023/01/22 11:58:27;;;;;;;;;;;18.00;99.90;;;;;;5029455;28;19912;-72
2023/01/22 12:01:07;;;;;;;;;;;18.00;99.90;;;;;;5029367;28;20420;-71
2023/01/22 12:03:53;;;;;;;;;;;18.10;99.90;;;;;;5029606;28;19966;-71
2023/01/22 12:06:20;;;;;;;;;;;18.00;99.90;;;;;;5030532;28;20375;-73
2023/01/22 12:08:50;;;;;;;;;;;18.10;99.90;;;;;;5031347;28;19995;-70
2023/01/22 12:11:16;;;;;;;;;;;18.00;99.90;;;;;;5034324;28;19964;-71
2023/01/22 12:13:59;;;;;;;;;;;18.10;99.90;;;;;;5043981;28;19923;-72
2023/01/22 12:16:34;;;;;;;;;;;18.10;99.90;;;;;;5036461;28;20871;-71
2023/01/22 12:19:01;;;;;;;;;;;18.10;99.90;;;;;;5032992;28;19917;-69
2023/01/22 12:21:34;;;;;;;;;;;18.10;99.90;;;;;;5033982;28;19912;-71
2023/01/22 12:24:08;;;;;;;;;;;18.10;99.90;;;;;;5033662;28;20013;-70
2023/01/22 12:26:40;;;;;;;;;;;18.10;99.90;;;;;;5034045;28;19924;-70
2023/01/22 12:29:12;;;;;;;;;;;18.10;99.90;;;;;;5033813;28;19924;-72
2023/01/22 12:31:59;;;;;;;;;;;18.10;99.90;;;;;;5035339;28;19928;-70
2023/01/22 12:34:31;;;;;;;;;;;18.10;99.90;;;;;;5036005;28;20027;-70
2023/01/22 12:36:59;;;;;;;;;;;18.10;99.90;;;;;;5036110;28;19917;-69
2023/01/22 12:39:28;;;;;;;;;;;18.20;99.90;;;;;;5034115;28;19939;-70
2023/01/22 12:42:06;;;;;;;;;;;18.20;99.90;;;;;;5035448;28;20025;-70
2023/01/22 12:44:48;;;;;;;;;;;18.10;99.90;;;;;;5034232;28;20014;-71
2023/01/22 12:47:18;;;;;;;;;;;18.10;99.90;;;;;;5032413;28;20414;-70
2023/01/22 12:49:46;;;;;;;;;;;18.20;99.90;;;;;;5033137;28;19969;-70
2023/01/22 12:52:33;;;;;;;;;;;18.20;99.90;;;;;;5033360;28;20002;-69
2023/01/22 12:55:00;;;;;;;;;;;18.20;99.90;;;;;;5033271;28;20027;-72
2023/01/22 12:57:38;;;;;;;;;;;18.20;99.90;;;;;;5032213;28;19967;-71
2023/01/22 13:00:22;;;;;;;;;;;18.20;99.90;;;;;;5030473;28;19923;-70
2023/01/22 13:02:49;;;;;;;;;;;18.20;99.90;;;;;;5032145;28;20402;-71
2023/01/22 13:05:31;;;;;;;;;;;18.20;99.90;;;;;;5030378;28;20091;-69
2023/01/22 13:08:20;;;;;;;;;;;18.20;99.90;;;;;;5029253;28;21543;-69
2023/01/22 13:11:06;;;;;;;;;;;18.20;99.90;;;;;;5029497;28;19928;-69
2023/01/22 13:13:38;;;;;;;;;;;18.20;99.90;;;;;;5036019;28;19966;-72
2023/01/22 13:16:15;;;;;;;;;;;18.20;99.90;;;;;;5031566;28;19913;-69
2023/01/22 13:18:47;;;;;;;;;;;18.20;99.90;;;;;;5032005;28;19928;-70
2023/01/22 13:21:16;;;;;;;;;;;18.20;99.90;;;;;;5030973;28;19979;-71
2023/01/22 13:23:46;;;;;;;;;;;18.10;99.90;;;;;;5031314;28;20025;-70
2023/01/22 13:26:18;;;;;;;;;;;18.20;99.90;;;;;;5032064;28;19932;-71
2023/01/22 13:28:49;;;;;;;;;;;18.20;99.90;;;;;;5031716;28;19917;-74
2023/01/22 13:31:16;;;;;;;;;;;18.20;99.90;;;;;;5032567;28;19928;-72
2023/01/22 13:33:57;;;;;;;;;;;18.20;99.90;;;;;;5031526;28;20410;-71
2023/01/22 13:36:24;;;;;;;;;;;18.20;99.90;;;;;;5031411;28;21934;-72
2023/01/22 13:38:58;;;;;;;;;;;18.20;99.90;;;;;;5031181;28;20390;-74
2023/01/22 13:41:31;;;;;;;;;;;18.20;99.90;;;;;;5033243;28;19916;-70
2023/01/22 13:44:01;;;;;;;;;;;18.20;99.90;;;;;;5031749;28;20027;-71
2023/01/22 13:46:29;;;;;;;;;;;18.20;99.90;;;;;;5030246;28;19912;-71
2023/01/22 13:49:06;;;;;;;;;;;18.20;99.90;;;;;;5041215;28;19920;-73
2023/01/22 13:51:33;;;;;;;;;;;18.20;99.90;;;;;;5032049;28;19964;-71
2023/01/22 13:54:00;;;;;;;;;;;18.20;99.90;;;;;;5031492;28;19917;-72
2023/01/22 13:56:28;;;;;;;;;;;18.20;99.90;;;;;;5031939;28;19916;-69
2023/01/22 13:59:27;;;;;;;;;;;18.20;99.90;;;;;;5031675;28;19923;-71
2023/01/22 14:01:54;;;;;;;;;;;18.10;99.90;;;;;;5002780;28;20062;-71
2023/01/22 14:04:33;;;;;;;;;;;18.10;99.90;;;;;;5032061;28;19962;-70
2023/01/22 14:07:00;;;;;;;;;;;18.10;99.90;;;;;;5031206;28;19913;-70
2023/01/22 14:09:26;;;;;;;;;;;18.20;99.90;;;;;;5031723;28;19924;-70
2023/01/22 14:11:53;;;;;;;;;;;18.10;99.90;;;;;;5038762;28;20137;-73
2023/01/22 14:14:20;;;;;;;;;;;18.10;99.90;;;;;;5030170;28;20303;-71
2023/01/22 14:16:47;;;;;;;;;;;18.10;99.90;;;;;;5035224;28;19920;-70
2023/01/22 14:19:17;;;;;;;;;;;18.00;99.90;;;;;;5031767;28;20308;-69
2023/01/22 14:21:44;;;;;;;;;;;18.10;99.90;;;;;;5030923;28;20002;-69
2023/01/22 14:24:10;;;;;;;;;;;18.10;99.90;;;;;;5031413;28;19912;-71
2023/01/22 14:26:37;;;;;;;;;;;18.00;99.90;;;;;;5032706;28;19962;-70
2023/01/22 14:29:04;;;;;;;;;;;18.10;99.90;;;;;;5031472;28;20474;-71
2023/01/22 14:31:30;;;;;;;;;;;18.10;99.90;;;;;;5030836;28;20299;-72
2023/01/22 14:33:57;;;;;;;;;;;18.00;99.90;;;;;;5030703;28;20383;-76